createdAt,value
2019-03-03T00:01:14.084Z,35.47
2019-03-03T00:03:45.873Z,31.57
2019-03-03T00:06:16.975Z,35.77
2019-03-03T00:08:48.113Z,36.43
2019-03-03T00:11:19.139Z,29.30
2019-03-03T00:13:50.188Z,31.47
2019-03-03T00:16:21.088Z,33.03
2019-03-03T00:18:51.982Z,35.20
2019-03-03T00:21:24.501Z,36.60
2019-03-03T00:23:55.492Z,32.80
2019-03-03T00:26:26.543Z,34.70
2019-03-03T00:28:57.536Z,34.93
2019-03-03T00:31:36.512Z,32.37
2019-03-03T00:34:08.596Z,31.10
2019-03-03T00:37:13.573Z,29.37
2019-03-03T00:39:49.043Z,22.13
2019-03-03T00:42:33.256Z,27.50
2019-03-03T00:45:19.893Z,26.77
2019-03-03T00:48:18.542Z,33.57
2019-03-03T00:51:14.445Z,30.13
2019-03-03T00:53:52.575Z,29.93
2019-03-03T00:56:38.907Z,30.77
2019-03-03T00:59:25.006Z,32.53
2019-03-03T01:02:05.677Z,28.43
2019-03-03T01:05:02.388Z,34.80
2019-03-03T01:07:52.239Z,26.00
2019-03-03T01:10:57.155Z,26.13
2019-03-03T01:13:37.224Z,29.77
2019-03-03T01:16:26.293Z,26.03
2019-03-03T01:19:07.054Z,23.57
2019-03-03T01:21:59.674Z,26.23
2019-03-03T01:24:44.980Z,24.57
2019-03-03T01:27:16.203Z,26.83
2019-03-03T01:29:47.204Z,27.97
2019-03-03T01:32:18.266Z,29.47
2019-03-03T01:34:49.262Z,30.03
2019-03-03T01:37:20.296Z,26.67
2019-03-03T01:39:51.176Z,21.93
2019-03-03T01:42:22.185Z,26.07
2019-03-03T01:44:53.191Z,26.73
2019-03-03T01:47:27.337Z,30.60
2019-03-03T01:49:59.303Z,28.00
2019-03-03T01:52:30.243Z,30.90
2019-03-03T01:55:01.138Z,27.20
2019-03-03T01:57:32.106Z,27.23
2019-03-03T02:00:03.895Z,32.07
2019-03-03T02:02:35.500Z,24.77
2019-03-03T02:05:06.462Z,31.90
2019-03-03T02:07:37.511Z,28.33
2019-03-03T02:10:08.979Z,28.57
2019-03-03T02:12:40.074Z,31.27
2019-03-03T02:15:11.535Z,25.43
2019-03-03T02:17:42.617Z,30.60
2019-03-03T02:20:13.729Z,27.67
2019-03-03T02:22:44.854Z,28.43
2019-03-03T02:25:16.197Z,29.87
2019-03-03T02:27:47.381Z,31.47
2019-03-03T02:30:20.320Z,31.70
2019-03-03T02:32:51.530Z,27.90
2019-03-03T02:35:22.549Z,34.93
2019-03-03T02:37:53.520Z,29.77
2019-03-03T02:40:24.627Z,32.77
2019-03-03T02:42:56.740Z,34.13
2019-03-03T02:45:27.615Z,28.23
2019-03-03T02:47:58.615Z,28.23
2019-03-03T02:50:29.475Z,32.10
2019-03-03T02:53:00.611Z,31.87
2019-03-03T02:55:31.740Z,35.53
2019-03-03T02:58:03.893Z,33.20
2019-03-03T03:00:36.579Z,34.00
2019-03-03T03:03:10.988Z,35.57
2019-03-03T03:05:59.344Z,33.43
2019-03-03T03:08:37.495Z,35.70
2019-03-03T03:11:42.308Z,37.63
2019-03-03T03:14:33.180Z,39.00
2019-03-03T03:17:21.889Z,29.03
2019-03-03T03:20:01.814Z,28.10
2019-03-03T03:22:58.997Z,33.13
2019-03-03T03:25:39.956Z,27.70
2019-03-03T03:28:28.089Z,25.93
2019-03-03T03:31:17.849Z,31.43
2019-03-03T03:34:13.177Z,28.60
2019-03-03T03:37:08.662Z,26.50
2019-03-03T03:39:58.384Z,27.63
2019-03-03T03:42:48.165Z,27.33
2019-03-03T03:45:36.693Z,26.37
2019-03-03T03:48:26.737Z,30.77
2019-03-03T03:51:13.444Z,26.03
2019-03-03T03:53:53.103Z,30.70
2019-03-03T03:56:43.124Z,28.83
2019-03-03T03:59:39.048Z,27.87
2019-03-03T04:02:27.397Z,33.40
2019-03-03T04:05:05.557Z,28.97
2019-03-03T04:08:04.256Z,30.57
2019-03-03T04:11:13.397Z,34.33
2019-03-03T04:14:12.405Z,30.57
2019-03-03T04:16:58.417Z,35.20
2019-03-03T04:19:38.931Z,30.43
2019-03-03T04:22:17.852Z,32.97
2019-03-03T04:25:06.528Z,32.00
2019-03-03T04:27:59.242Z,31.60
2019-03-03T04:31:07.591Z,24.47
2019-03-03T04:33:47.709Z,33.43
2019-03-03T04:36:34.857Z,38.33
2019-03-03T04:39:16.720Z,32.70
2019-03-03T04:42:15.116Z,33.67
2019-03-03T04:45:01.618Z,29.57
2019-03-03T04:47:49.474Z,30.73
2019-03-03T04:50:31.679Z,34.07
2019-03-03T04:53:19.230Z,33.07
2019-03-03T04:56:00.733Z,31.97
2019-03-03T04:58:48.701Z,33.50
2019-03-03T05:01:37.127Z,32.47
2019-03-03T05:04:17.014Z,32.83
2019-03-03T05:07:06.731Z,33.43
2019-03-03T05:09:46.676Z,33.20
2019-03-03T05:12:47.061Z,34.17
2019-03-03T05:15:36.867Z,36.80
2019-03-03T05:18:29.669Z,36.70
2019-03-03T05:21:00.670Z,31.53
2019-03-03T05:23:31.585Z,37.03
2019-03-03T05:26:02.873Z,34.67
2019-03-03T05:28:33.866Z,29.53
2019-03-03T05:31:04.877Z,32.67
2019-03-03T05:33:35.846Z,34.93
2019-03-03T05:36:06.938Z,26.77
2019-03-03T05:38:37.872Z,35.77
2019-03-03T05:41:08.903Z,38.57
2019-03-03T05:43:40.269Z,37.50
2019-03-03T05:46:11.320Z,35.33
2019-03-03T05:48:42.363Z,38.97
2019-03-03T05:51:13.474Z,34.83
2019-03-03T05:53:44.479Z,30.17
2019-03-03T05:56:16.369Z,38.23
2019-03-03T05:58:48.042Z,38.80
2019-03-03T06:01:19.352Z,38.23
2019-03-03T06:03:50.371Z,39.70
2019-03-03T06:06:21.886Z,38.73
2019-03-03T06:08:53.417Z,41.70
2019-03-03T06:11:24.420Z,40.37
2019-03-03T06:13:55.443Z,39.40
2019-03-03T06:16:26.565Z,44.93
2019-03-03T06:18:57.800Z,49.20
2019-03-03T06:21:28.939Z,38.53
2019-03-03T06:23:59.982Z,39.07
2019-03-03T06:26:31.106Z,48.93
2019-03-03T06:29:02.268Z,46.30
2019-03-03T06:31:33.410Z,40.23
2019-03-03T06:34:04.636Z,41.43
2019-03-03T06:36:35.627Z,43.93
2019-03-03T06:39:08.244Z,43.13
2019-03-03T06:41:39.357Z,42.17
2019-03-03T06:44:10.333Z,43.47
2019-03-03T06:46:42.315Z,44.23
2019-03-03T06:49:13.463Z,42.00
2019-03-03T06:51:44.516Z,43.80
2019-03-03T06:54:15.457Z,42.50
2019-03-03T06:56:46.792Z,42.87
2019-03-03T06:59:17.887Z,44.37
2019-03-03T07:01:48.995Z,46.47
2019-03-03T07:04:20.003Z,44.50
2019-03-03T07:06:51.033Z,45.77
2019-03-03T07:09:22.103Z,43.27
2019-03-03T07:11:53.085Z,47.67
2019-03-03T07:14:24.047Z,43.43
2019-03-03T07:16:55.167Z,44.43
2019-03-03T07:19:26.146Z,42.53
2019-03-03T07:21:57.203Z,40.03
2019-03-03T07:24:28.147Z,38.27
2019-03-03T07:26:59.386Z,44.40
2019-03-03T07:29:30.302Z,39.47
2019-03-03T07:32:01.268Z,42.17
2019-03-03T07:34:32.152Z,43.77
2019-03-03T07:37:03.276Z,46.37
2019-03-03T07:39:34.138Z,43.90
2019-03-03T07:42:06.636Z,49.43
2019-03-03T07:44:37.523Z,43.53
2019-03-03T07:47:09.574Z,45.30
2019-03-03T07:49:40.664Z,42.70
2019-03-03T07:52:11.723Z,49.03
2019-03-03T07:54:44.114Z,37.53
2019-03-03T07:57:15.220Z,42.30
2019-03-03T07:59:46.306Z,44.23
2019-03-03T08:02:17.323Z,40.47
2019-03-03T08:04:49.961Z,38.70
2019-03-03T08:07:20.941Z,41.80
2019-03-03T08:09:52.600Z,44.87
2019-03-03T08:12:24.356Z,46.10
2019-03-03T08:14:55.356Z,45.07
2019-03-03T08:17:26.492Z,45.00
2019-03-03T08:19:58.811Z,47.83
2019-03-03T08:22:30.187Z,44.30
2019-03-03T08:25:01.691Z,43.63
2019-03-03T08:27:32.730Z,50.27
2019-03-03T08:30:03.904Z,43.57
2019-03-03T08:32:36.119Z,42.33
2019-03-03T08:35:09.056Z,43.63
2019-03-03T08:37:48.507Z,44.17
2019-03-03T08:40:20.764Z,48.07
2019-03-03T08:43:09.488Z,38.57
2019-03-03T08:45:59.380Z,52.90
2019-03-03T08:48:40.785Z,48.33
2019-03-03T08:51:23.741Z,50.43
2019-03-03T08:54:15.500Z,51.97
2019-03-03T08:57:11.608Z,50.43
2019-03-03T08:59:58.879Z,38.03
2019-03-03T09:02:58.398Z,49.93
2019-03-03T09:05:54.733Z,56.17
2019-03-03T09:08:43.176Z,46.47
2019-03-03T09:11:38.040Z,39.43
2019-03-03T09:14:40.598Z,54.43
2019-03-03T09:17:29.434Z,50.57
2019-03-03T09:20:28.813Z,57.27
2019-03-03T09:23:29.582Z,59.00
2019-03-03T09:26:12.991Z,56.20
2019-03-03T09:29:05.426Z,58.03
2019-03-03T09:31:48.948Z,55.73
2019-03-03T09:34:37.708Z,49.60
2019-03-03T09:37:27.510Z,59.13
2019-03-03T09:40:32.528Z,50.77
2019-03-03T09:43:11.286Z,51.00
2019-03-03T09:46:10.626Z,62.67
2019-03-03T09:49:17.231Z,47.60
2019-03-03T09:52:17.936Z,58.30
2019-03-03T09:55:22.523Z,54.33
2019-03-03T09:58:10.320Z,61.43
2019-03-03T10:01:12.835Z,49.50
2019-03-03T10:04:05.518Z,60.63
2019-03-03T10:07:10.522Z,56.30
2019-03-03T10:10:09.178Z,56.20
2019-03-03T10:12:56.634Z,58.47
2019-03-03T10:15:43.668Z,62.43
2019-03-03T10:18:23.664Z,52.23
2019-03-03T10:21:06.546Z,66.57
2019-03-03T10:24:06.849Z,65.20
2019-03-03T10:26:59.743Z,60.70
2019-03-03T10:30:00.392Z,66.43
2019-03-03T10:32:49.430Z,69.90
2019-03-03T10:35:48.971Z,66.70
2019-03-03T10:38:37.991Z,55.37
2019-03-03T10:41:16.445Z,75.17
2019-03-03T10:44:02.405Z,70.07
2019-03-03T10:46:50.426Z,76.27
2019-03-03T10:49:46.801Z,72.27
2019-03-03T10:52:25.976Z,79.97
2019-03-03T10:55:28.538Z,75.83
2019-03-03T10:58:20.833Z,73.87
2019-03-03T11:01:23.157Z,80.70
2019-03-03T11:04:19.604Z,66.17
2019-03-03T11:07:10.199Z,66.87
2019-03-03T11:10:00.696Z,85.87
2019-03-03T11:12:49.776Z,73.10
2019-03-03T11:15:38.576Z,76.43
2019-03-03T11:18:27.289Z,66.87
2019-03-03T11:21:17.846Z,77.77
2019-03-03T11:24:10.323Z,87.23
2019-03-03T11:27:01.654Z,88.63
2019-03-03T11:29:43.174Z,74.07
2019-03-03T11:32:32.140Z,72.20
2019-03-03T11:35:25.254Z,67.27
2019-03-03T11:38:11.094Z,65.50
2019-03-03T11:40:55.040Z,91.90
2019-03-03T11:43:51.315Z,75.33
2019-03-03T11:47:02.407Z,79.63
2019-03-03T11:49:58.570Z,62.33
2019-03-03T11:52:43.784Z,76.43
2019-03-03T11:55:45.259Z,73.30
2019-03-03T11:58:30.156Z,57.23
2019-03-03T12:01:23.361Z,65.30
2019-03-03T12:04:13.718Z,63.83
2019-03-03T12:06:57.017Z,47.23
2019-03-03T12:09:41.461Z,68.50
2019-03-03T12:12:37.951Z,64.03
2019-03-03T12:15:28.274Z,62.27
2019-03-03T12:18:17.244Z,64.20
2019-03-03T12:20:59.985Z,57.53
2019-03-03T12:24:06.456Z,61.83
2019-03-03T12:26:59.491Z,67.77
2019-03-03T12:29:48.081Z,55.70
2019-03-03T12:32:40.626Z,60.07
2019-03-03T12:35:19.806Z,54.77
2019-03-03T12:38:07.002Z,62.77
2019-03-03T12:40:53.615Z,53.63
2019-03-03T12:43:53.047Z,60.97
2019-03-03T12:46:41.751Z,42.30
2019-03-03T12:49:35.226Z,42.77
2019-03-03T12:52:19.445Z,42.37
2019-03-03T12:55:09.646Z,46.33
2019-03-03T12:58:07.443Z,39.50
2019-03-03T13:01:03.524Z,34.40
2019-03-03T13:03:53.393Z,36.37
2019-03-03T13:06:32.600Z,32.93
2019-03-03T13:09:31.293Z,29.43
2019-03-03T13:12:24.230Z,34.93
2019-03-03T13:15:26.688Z,26.33
2019-03-03T13:18:15.677Z,28.07
2019-03-03T13:21:04.452Z,24.53
2019-03-03T13:24:00.009Z,27.37
2019-03-03T13:26:48.405Z,24.10
2019-03-03T13:29:49.024Z,22.90
2019-03-03T13:32:27.180Z,25.00
2019-03-03T13:35:23.758Z,24.10
2019-03-03T13:38:07.278Z,25.30
2019-03-03T13:41:00.349Z,21.97
2019-03-03T13:43:37.950Z,22.10
2019-03-03T13:46:10.665Z,23.43
2019-03-03T13:48:41.807Z,22.50
2019-03-03T13:51:13.162Z,22.83
2019-03-03T13:53:45.940Z,22.40
2019-03-03T13:56:17.874Z,18.33
2019-03-03T13:58:59.914Z,21.60
2019-03-03T14:01:31.127Z,21.10
2019-03-03T14:04:02.177Z,20.60
2019-03-03T14:06:33.376Z,14.30
2019-03-03T14:09:05.565Z,18.90
2019-03-03T14:11:37.210Z,18.37
2019-03-03T14:14:11.527Z,15.00
2019-03-03T14:16:44.868Z,17.50
2019-03-03T14:19:21.066Z,16.93
2019-03-03T14:21:52.207Z,15.50
2019-03-03T14:24:23.186Z,15.33
2019-03-03T14:26:54.419Z,18.53
2019-03-03T14:29:25.448Z,20.37
2019-03-03T14:31:56.553Z,17.80
2019-03-03T14:34:28.102Z,15.97
2019-03-03T14:36:59.633Z,17.83
2019-03-03T14:39:30.924Z,15.17
2019-03-03T14:42:02.000Z,15.90
2019-03-03T14:44:33.765Z,14.20
2019-03-03T14:47:04.934Z,16.40
2019-03-03T14:49:35.866Z,11.03
2019-03-03T14:52:06.965Z,14.87
2019-03-03T14:54:38.285Z,14.93
2019-03-03T14:57:09.739Z,19.63
2019-03-03T14:59:42.918Z,31.30
2019-03-03T15:05:13.353Z,18.63
2019-03-03T15:07:45.806Z,18.10
2019-03-03T15:10:17.061Z,17.83
2019-03-03T15:12:48.454Z,15.07
2019-03-03T15:15:20.696Z,17.23
2019-03-03T15:17:53.820Z,17.93
2019-03-03T15:20:25.109Z,16.37
2019-03-03T15:22:59.402Z,18.30
2019-03-03T15:25:33.709Z,15.80
2019-03-03T15:28:10.051Z,15.93
2019-03-03T15:30:42.181Z,18.67
2019-03-03T15:33:13.605Z,16.53
2019-03-03T15:35:44.771Z,16.57
2019-03-03T15:38:16.274Z,15.77
2019-03-03T15:40:48.664Z,13.20
2019-03-03T15:43:20.922Z,11.70
2019-03-03T15:46:01.243Z,11.97
2019-03-03T15:51:27.756Z,9.63
2019-03-03T15:54:12.156Z,7.90
2019-03-03T15:56:43.962Z,8.17
2019-03-03T15:59:15.860Z,8.53
2019-03-03T16:01:47.523Z,9.67
2019-03-03T16:04:19.746Z,9.60
2019-03-03T16:06:50.877Z,10.10
2019-03-03T16:09:21.999Z,9.70
2019-03-03T16:11:53.280Z,10.23
2019-03-03T16:14:24.384Z,8.47
2019-03-03T16:16:59.733Z,10.57
2019-03-03T16:19:30.913Z,11.30
2019-03-03T16:22:02.047Z,11.13
2019-03-03T16:24:34.164Z,10.10
2019-03-03T16:27:05.388Z,11.70
2019-03-03T16:29:36.540Z,11.87
2019-03-03T16:32:08.043Z,10.80
2019-03-03T16:34:39.844Z,12.27
2019-03-03T16:37:11.694Z,12.10
2019-03-03T16:39:43.094Z,14.40
2019-03-03T16:42:15.702Z,12.77
2019-03-03T16:44:46.733Z,13.83
2019-03-03T16:47:17.715Z,11.30
2019-03-03T16:49:49.835Z,12.13
2019-03-03T16:52:21.278Z,15.07
2019-03-03T16:54:58.781Z,12.77
2019-03-03T16:57:29.810Z,11.03
2019-03-03T17:00:08.626Z,9.97
2019-03-03T17:02:40.077Z,13.63
2019-03-03T17:05:12.327Z,14.50
2019-03-03T17:07:44.273Z,11.50
2019-03-03T17:10:16.696Z,12.13
2019-03-03T17:12:47.887Z,12.00
2019-03-03T17:15:20.734Z,9.10
2019-03-03T17:17:51.879Z,13.90
2019-03-03T17:20:23.250Z,12.33
2019-03-03T17:22:55.331Z,14.33
2019-03-03T17:25:26.713Z,14.37
2019-03-03T17:27:57.931Z,11.57
2019-03-03T17:30:31.081Z,11.30
2019-03-03T17:33:01.873Z,14.17
2019-03-03T17:35:34.982Z,12.77
2019-03-03T17:38:10.968Z,10.17
2019-03-03T17:40:42.421Z,12.63
2019-03-03T17:43:13.977Z,31.20
2019-03-03T17:45:45.121Z,17.73
2019-03-03T17:48:16.420Z,10.77
2019-03-03T17:50:47.683Z,18.87
2019-03-03T17:53:18.818Z,14.67
2019-03-03T17:55:50.695Z,16.40
2019-03-03T17:58:22.288Z,20.93
2019-03-03T18:00:53.802Z,41.53
2019-03-03T18:03:25.075Z,16.30
2019-03-03T18:05:56.897Z,10.27
2019-03-03T18:08:28.205Z,13.83
2019-03-03T18:10:59.991Z,13.93
2019-03-03T18:13:31.066Z,10.97
2019-03-03T18:16:03.222Z,15.10
2019-03-03T18:18:35.058Z,17.77
2019-03-03T18:21:06.852Z,10.57
2019-03-03T18:23:39.963Z,13.20
2019-03-03T18:26:11.777Z,13.93
2019-03-03T18:28:42.912Z,10.60
2019-03-03T18:31:14.570Z,13.77
2019-03-03T18:33:46.293Z,19.57
2019-03-03T18:36:17.541Z,12.67
2019-03-03T18:38:48.761Z,13.93
2019-03-03T18:41:20.463Z,13.13
2019-03-03T18:43:51.458Z,10.87
2019-03-03T18:46:22.574Z,13.37
2019-03-03T18:48:53.571Z,12.13
2019-03-03T18:51:24.974Z,17.03
2019-03-03T18:53:57.135Z,16.47
2019-03-03T18:56:32.425Z,15.10
2019-03-03T18:59:04.462Z,14.83
2019-03-03T19:01:41.209Z,11.17
2019-03-03T19:04:13.049Z,13.60
2019-03-03T19:06:45.029Z,13.80
2019-03-03T19:09:21.342Z,19.60
2019-03-03T19:11:52.951Z,13.17
2019-03-03T19:14:28.780Z,19.23
2019-03-03T19:17:00.420Z,15.77
2019-03-03T19:19:34.906Z,12.67
2019-03-03T19:22:06.459Z,14.27
2019-03-03T19:24:41.082Z,15.27
2019-03-03T19:27:14.789Z,15.50
2019-03-03T19:29:46.021Z,16.60
2019-03-03T19:32:17.549Z,19.77
2019-03-03T19:34:57.926Z,15.63
2019-03-03T19:37:29.586Z,16.53
2019-03-03T19:40:00.897Z,18.30
2019-03-03T19:42:34.448Z,18.27
2019-03-03T19:45:11.605Z,17.93
2019-03-03T19:47:46.672Z,18.83
2019-03-03T19:50:27.365Z,21.63
2019-03-03T19:52:59.318Z,22.23
2019-03-03T19:55:30.658Z,17.07
2019-03-03T19:58:04.707Z,18.57
2019-03-03T20:00:38.921Z,17.73
2019-03-03T20:03:09.557Z,18.13
2019-03-03T20:05:47.966Z,19.87
2019-03-03T20:08:21.231Z,21.10
2019-03-03T20:10:53.011Z,16.33
2019-03-03T20:13:26.192Z,18.27
2019-03-03T20:16:23.600Z,18.03
2019-03-03T20:18:55.307Z,23.40
2019-03-03T20:21:26.659Z,21.23
2019-03-03T20:23:57.931Z,19.67
2019-03-03T20:26:29.507Z,22.50
2019-03-03T20:29:00.817Z,24.07
2019-03-03T20:31:32.311Z,22.80
2019-03-03T20:34:03.976Z,28.50
2019-03-03T20:36:35.347Z,25.63
2019-03-03T20:39:08.229Z,22.10
2019-03-03T20:41:39.890Z,22.77
2019-03-03T20:44:11.380Z,18.60
2019-03-03T20:46:42.620Z,25.43
2019-03-03T20:49:14.049Z,22.37
2019-03-03T20:51:45.139Z,20.27
2019-03-03T20:54:16.218Z,23.50
2019-03-03T20:56:47.539Z,24.10
2019-03-03T20:59:18.872Z,22.47
2019-03-03T21:01:50.123Z,17.87
2019-03-03T21:04:21.471Z,20.00
2019-03-03T21:06:52.480Z,20.67
2019-03-03T21:09:23.838Z,19.97
2019-03-03T21:11:55.059Z,18.50
2019-03-03T21:14:26.440Z,17.90
2019-03-03T21:16:57.619Z,16.17
2019-03-03T21:19:28.896Z,17.17
2019-03-03T21:22:00.106Z,15.67
2019-03-03T21:24:31.363Z,17.83
2019-03-03T21:27:02.334Z,16.97
2019-03-03T21:29:33.428Z,14.77
2019-03-03T21:32:04.461Z,16.17
2019-03-03T21:34:35.689Z,15.67
2019-03-03T21:37:06.833Z,16.90
2019-03-03T21:39:38.229Z,18.90
2019-03-03T21:42:09.656Z,21.20
2019-03-03T21:44:40.815Z,17.10
2019-03-03T21:47:11.809Z,15.93
2019-03-03T21:49:42.979Z,21.20
2019-03-03T21:52:14.130Z,22.47
2019-03-03T21:54:46.901Z,14.57
2019-03-03T21:57:18.055Z,22.73
2019-03-03T21:59:49.138Z,11.67
2019-03-03T22:02:20.938Z,21.23
2019-03-03T22:04:52.490Z,15.50
2019-03-03T22:07:23.838Z,21.87
2019-03-03T22:09:55.479Z,22.10
2019-03-03T22:12:26.948Z,17.83
2019-03-03T22:14:59.207Z,17.73
2019-03-03T22:17:31.010Z,17.37
2019-03-03T22:20:02.900Z,17.63
2019-03-03T22:22:34.611Z,19.97
2019-03-03T22:25:09.200Z,20.73
2019-03-03T22:27:41.014Z,19.00
2019-03-03T22:30:12.241Z,18.93
2019-03-03T22:32:44.072Z,17.13
2019-03-03T22:35:15.529Z,18.77
2019-03-03T22:37:46.969Z,21.10
2019-03-03T22:40:18.196Z,16.83
2019-03-03T22:42:49.209Z,20.03
2019-03-03T22:45:20.414Z,17.47
2019-03-03T22:47:51.448Z,17.10
2019-03-03T22:50:22.836Z,18.13
2019-03-03T22:52:53.976Z,16.20
2019-03-03T22:55:25.249Z,16.27
2019-03-03T22:57:56.270Z,17.43
2019-03-03T23:00:53.859Z,15.07
2019-03-03T23:03:30.128Z,18.17
2019-03-03T23:06:28.574Z,15.53
2019-03-03T23:09:49.562Z,13.30
2019-03-03T23:12:39.009Z,8.80
2019-03-03T23:15:59.551Z,11.67
2019-03-03T23:18:56.269Z,11.00
2019-03-03T23:22:01.598Z,15.03
2019-03-03T23:25:28.726Z,16.23
2019-03-03T23:28:00.952Z,15.17
2019-03-03T23:30:32.018Z,16.53
2019-03-03T23:33:02.971Z,17.20
2019-03-03T23:35:34.002Z,17.23
2019-03-03T23:38:05.027Z,17.27
2019-03-03T23:40:35.955Z,19.37
2019-03-03T23:43:07.224Z,20.70
2019-03-03T23:45:38.115Z,22.30
2019-03-03T23:48:09.229Z,22.73
2019-03-03T23:50:40.380Z,21.10
2019-03-03T23:53:11.398Z,24.70
2019-03-03T23:55:42.377Z,22.90
2019-03-03T23:58:14.368Z,26.50
